Ikan Bagat — 3EYX8 — position and weather

sailwx.info

Track history (hours):
 
Tides and Currents Weather Stations Pressure Air Temp Water Temp Dewpoint Dewpoint Depression Visibility Wind Speed Wind Dir Waves Ship Positions

Ikan Bagat

Last reported at 2014-Aug-16 17:08 UTC. Time now 2014-Aug-27 13:13 UTC.
Position N 33°51' E 134°58'.
Warning: this ship's position is 10 days out of date.

Length 229 m; draft 9.3 m.

Type: Cargo ship. MMSI: 354375000.

Date/timePositionNaut miles runAvg speedWind from/ knotsBaromVisibWave heightAir tempDewpointWater temp
2014-Aug-16 17:08N 33°51' E 134°58'711.6
2014-Aug-16 16:33N 33°58' E 134°58'1211.8
2014-Aug-16 15:33N 34°09' E 134°57'1010.1
2014-Aug-16 14:32N 34°19' E 134°59'1212.7
2014-Aug-16 13:33N 34°31' E 135°06'7 6.7
2014-Aug-16 12:33N 34°37' E 135°02'1313.4
2014-Aug-16 11:33N 34°32' E 134°46'  
2014-Aug-13 23:23N 34°32' E 134°45'1012.4
2014-Aug-13 22:33N 34°37' E 134°56'8 8.1
2014-Aug-13 21:33N 34°35' E 135°06'4 3.7
2014-Aug-13 20:26N 34°35' E 135°11'0 0.0
2014-Aug-13 19:32N 34°34' E 135°11'0 0.0
2014-Aug-13 18:20N 34°34' E 135°11'0 0.1
2014-Aug-13 17:32N 34°34' E 135°11'0 0.1
2014-Aug-13 16:32N 34°34' E 135°11'0 0.1
2014-Aug-13 15:32N 34°35' E 135°11'0 0.2
2014-Aug-13 14:32N 34°35' E 135°11'0 0.0
2014-Aug-13 13:32N 34°35' E 135°11'0 0.1
2014-Aug-13 12:26N 34°35' E 135°11'0 0.1
2014-Aug-13 11:32N 34°35' E 135°11'0 0.1
2014-Aug-13 10:32N 34°35' E 135°11'0 0.1
2014-Aug-13 09:32N 34°35' E 135°11'0 0.1
2014-Aug-13 08:32N 34°35' E 135°11'0 0.2
2014-Aug-13 07:33N 34°34' E 135°11'8 7.8
2014-Aug-13 06:33N 34°28' E 135°06'1111.3
2014-Aug-13 05:33N 34°18' E 134°59'10 9.7
2014-Aug-13 04:33N 34°08' E 134°59'1010.0
2014-Aug-13 03:33N 33°58' E 134°56'  
Track history (hours):
 
Tides and Currents Weather Stations Pressure Air Temp Water Temp Dewpoint Dewpoint Depression Visibility Wind Speed Wind Dir Waves Ship Positions

Ikan Bagat

Last reported at 2014-Aug-16 17:08 UTC. Time now 2014-Aug-27 13:13 UTC.
Position N 33°51' E 134°58'.
Warning: this ship's position is 10 days out of date.

Length 229 m; draft 9.3 m.

Type: Cargo ship. MMSI: 354375000.

Date/timePositionNaut miles runAvg speedWind from/ knotsBaromVisibWave heightAir tempDewpointWater temp
2014-Aug-16 17:08N 33°51' E 134°58'711.6
2014-Aug-16 16:33N 33°58' E 134°58'1211.8
2014-Aug-16 15:33N 34°09' E 134°57'1010.1
2014-Aug-16 14:32N 34°19' E 134°59'1212.7
2014-Aug-16 13:33N 34°31' E 135°06'7 6.7
2014-Aug-16 12:33N 34°37' E 135°02'1313.4
2014-Aug-16 11:33N 34°32' E 134°46'  
2014-Aug-13 23:23N 34°32' E 134°45'1012.4
2014-Aug-13 22:33N 34°37' E 134°56'8 8.1
2014-Aug-13 21:33N 34°35' E 135°06'4 3.7
2014-Aug-13 20:26N 34°35' E 135°11'0 0.0
2014-Aug-13 19:32N 34°34' E 135°11'0 0.0
2014-Aug-13 18:20N 34°34' E 135°11'0 0.1
2014-Aug-13 17:32N 34°34' E 135°11'0 0.1
2014-Aug-13 16:32N 34°34' E 135°11'0 0.1
2014-Aug-13 15:32N 34°35' E 135°11'0 0.2
2014-Aug-13 14:32N 34°35' E 135°11'0 0.0
2014-Aug-13 13:32N 34°35' E 135°11'0 0.1
2014-Aug-13 12:26N 34°35' E 135°11'0 0.1
2014-Aug-13 11:32N 34°35' E 135°11'0 0.1
2014-Aug-13 10:32N 34°35' E 135°11'0 0.1
2014-Aug-13 09:32N 34°35' E 135°11'0 0.1
2014-Aug-13 08:32N 34°35' E 135°11'0 0.2
2014-Aug-13 07:33N 34°34' E 135°11'8 7.8
2014-Aug-13 06:33N 34°28' E 135°06'1111.3
2014-Aug-13 05:33N 34°18' E 134°59'10 9.7
2014-Aug-13 04:33N 34°08' E 134°59'1010.0
2014-Aug-13 03:33N 33°58' E 134°56'  

Dump ship's entire track history